Time;durP1;ratioP1;P1;durP2;ratioP2;P2;SDS_P1;SDS_P2;PMS_P1;PMS_P2;Temp;Humidity;BMP_temperature;BMP_pressure;BME280_temperature;BME280_humidity;BME280_pressure;Samples;Min_cycle;Max_cycle;Signal;HPM_P1;HPM_P2
2023/12/13 00:00:26;;;;;;;7.10;3.55;;;8.90;99.90;;;;;;5032809;28;20026;-39
2023/12/13 00:02:52;;;;;;;9.13;3.45;;;9.00;99.90;;;;;;5033292;28;20079;-41
2023/12/13 00:05:18;;;;;;;13.07;4.35;;;9.00;99.90;;;;;;5033674;28;20091;-40
2023/12/13 00:07:44;;;;;;;8.30;3.47;;;9.00;99.90;;;;;;5032234;28;20053;-37
2023/12/13 00:10:09;;;;;;;7.13;3.03;;;9.10;99.90;;;;;;5032379;28;20033;-37
2023/12/13 00:12:35;;;;;;;8.63;3.70;;;9.10;99.90;;;;;;5033136;28;20018;-39
2023/12/13 00:15:01;;;;;;;15.45;4.07;;;9.10;99.90;;;;;;5033452;28;20026;-43
2023/12/13 00:17:27;;;;;;;7.05;3.70;;;9.10;99.90;;;;;;5033147;28;20033;-37
2023/12/13 00:19:52;;;;;;;11.13;4.65;;;9.10;99.90;;;;;;5031881;28;20120;-40
2023/12/13 00:22:18;;;;;;;8.57;4.30;;;9.00;99.90;;;;;;5032622;28;20054;-39
2023/12/13 00:24:44;;;;;;;10.77;4.25;;;9.00;99.90;;;;;;5033364;28;20028;-41
2023/12/13 00:27:09;;;;;;;5.57;4.13;;;9.10;99.90;;;;;;5032956;28;20095;-39
2023/12/13 00:29:35;;;;;;;6.80;4.00;;;9.00;99.90;;;;;;5033097;28;20060;-45
2023/12/13 00:32:01;;;;;;;6.75;4.53;;;9.10;99.90;;;;;;5033332;28;20112;-45
2023/12/13 00:34:27;;;;;;;11.27;4.30;;;9.10;99.90;;;;;;5032697;28;20033;-40
2023/12/13 00:36:52;;;;;;;6.13;3.97;;;9.10;99.90;;;;;;5033116;28;20163;-39
2023/12/13 00:39:18;;;;;;;10.68;4.18;;;9.10;99.90;;;;;;5032893;28;20018;-42
2023/12/13 00:41:44;;;;;;;16.73;4.55;;;9.10;99.90;;;;;;5033038;28;20029;-41
2023/12/13 00:44:09;;;;;;;14.65;4.10;;;9.00;99.90;;;;;;5032966;28;20036;-38
2023/12/13 00:46:35;;;;;;;12.68;5.13;;;9.00;99.90;;;;;;5033010;28;20029;-39
2023/12/13 00:49:00;;;;;;;9.77;4.63;;;9.00;99.90;;;;;;5031536;28;20021;-37
2023/12/13 00:51:26;;;;;;;10.68;4.10;;;9.00;99.90;;;;;;5032356;28;20368;-41
2023/12/13 00:53:52;;;;;;;11.80;4.78;;;9.00;99.90;;;;;;5032541;28;20343;-39
2023/12/13 00:56:18;;;;;;;9.02;4.03;;;9.00;99.90;;;;;;5032873;28;20071;-42
2023/12/13 00:58:45;;;;;;;7.05;4.45;;;9.10;99.90;;;;;;5032570;28;20517;-39
2023/12/13 01:01:11;;;;;;;6.30;3.37;;;9.10;99.90;;;;;;5031160;28;20494;-40
2023/12/13 01:03:36;;;;;;;12.88;3.88;;;9.10;99.90;;;;;;5032801;28;20351;-40
2023/12/13 01:06:09;;;;;;;10.82;4.35;;;9.20;99.90;;;;;;5032273;28;20046;-37
2023/12/13 01:08:37;;;;;;;9.27;4.38;;;9.10;99.90;;;;;;5013009;28;20357;-38
2023/12/13 01:11:09;;;;;;;5.88;4.03;;;9.10;99.90;;;;;;5025491;28;20501;-43
2023/12/13 01:13:35;;;;;;;11.93;4.22;;;9.10;99.90;;;;;;5032613;28;20533;-39
2023/12/13 01:16:01;;;;;;;12.63;4.55;;;9.10;99.90;;;;;;5032551;28;20475;-40
2023/12/13 01:18:27;;;;;;;12.88;4.68;;;9.10;99.90;;;;;;5033687;28;20036;-40
2023/12/13 01:20:52;;;;;;;8.35;4.00;;;9.10;99.90;;;;;;5035745;28;20051;-41
2023/12/13 01:23:18;;;;;;;13.80;5.13;;;9.10;99.90;;;;;;5036058;28;20546;-41
2023/12/13 01:25:43;;;;;;;17.63;4.40;;;9.00;99.90;;;;;;5036653;28;20022;-40
2023/12/13 01:28:09;;;;;;;10.90;4.25;;;9.00;99.90;;;;;;5036340;28;20497;-45
2023/12/13 01:30:35;;;;;;;12.85;4.65;;;8.90;99.90;;;;;;5036541;28;20116;-43
2023/12/13 01:33:00;;;;;;;8.52;4.38;;;8.90;99.90;;;;;;5036332;28;20108;-42
2023/12/13 01:35:26;;;;;;;8.90;4.35;;;9.00;99.90;;;;;;5036147;28;20034;-43
2023/12/13 01:37:52;;;;;;;13.85;4.60;;;9.00;99.90;;;;;;5036040;28;20044;-43
2023/12/13 01:40:17;;;;;;;8.50;4.15;;;9.10;99.90;;;;;;5036113;28;20479;-40
2023/12/13 01:42:43;;;;;;;6.47;4.47;;;9.10;99.90;;;;;;5036136;28;20467;-40
2023/12/13 01:45:09;;;;;;;5.30;4.00;;;9.10;99.90;;;;;;5035305;28;20488;-45
2023/12/13 01:47:35;;;;;;;7.35;3.45;;;9.10;99.90;;;;;;5016652;28;20407;-42
2023/12/13 01:50:01;;;;;;;8.10;3.83;;;9.10;99.90;;;;;;5026683;28;20573;-41
2023/12/13 01:52:28;;;;;;;8.68;3.88;;;9.10;99.90;;;;;;5036103;28;20499;-44
2023/12/13 01:54:54;;;;;;;9.85;4.05;;;9.10;99.90;;;;;;5036190;28;20050;-41
2023/12/13 01:57:20;;;;;;;4.55;3.33;;;9.10;99.90;;;;;;5036193;28;20021;-41
2023/12/13 01:59:46;;;;;;;6.18;3.35;;;9.10;99.90;;;;;;5034677;28;20341;-41
2023/12/13 02:02:12;;;;;;;7.50;3.40;;;9.20;99.90;;;;;;5035781;28;20029;-41
2023/12/13 02:04:38;;;;;;;11.00;3.95;;;9.10;99.90;;;;;;5035085;28;20471;-39
2023/12/13 02:07:04;;;;;;;8.25;3.53;;;9.20;99.90;;;;;;5035697;28;20493;-44
2023/12/13 02:09:29;;;;;;;5.97;3.80;;;9.20;99.90;;;;;;5035482;28;20022;-42
2023/12/13 02:11:56;;;;;;;5.47;3.40;;;9.20;99.90;;;;;;5035563;28;20407;-42
2023/12/13 02:14:22;;;;;;;8.02;4.28;;;9.20;99.90;;;;;;5035590;28;20026;-41
2023/12/13 02:16:47;;;;;;;4.90;3.40;;;9.20;99.90;;;;;;5035706;28;20399;-40
2023/12/13 02:19:13;;;;;;;7.05;4.10;;;9.20;99.90;;;;;;5035203;28;20411;-42
2023/12/13 02:21:39;;;;;;;12.80;3.92;;;9.20;99.90;;;;;;5035572;28;20478;-41
2023/12/13 02:24:06;;;;;;;11.10;4.95;;;9.20;99.90;;;;;;5035517;28;20120;-40
2023/12/13 02:26:37;;;;;;;9.52;3.63;;;9.20;99.90;;;;;;5035618;28;20475;-39
2023/12/13 02:29:03;;;;;;;15.52;3.85;;;9.20;99.90;;;;;;5035324;28;20422;-42
2023/12/13 02:31:30;;;;;;;11.80;3.97;;;9.20;99.90;;;;;;5034342;28;20037;-40
2023/12/13 02:33:56;;;;;;;9.52;3.92;;;9.20;99.90;;;;;;5035143;28;20436;-42
2023/12/13 02:36:21;;;;;;;15.85;4.63;;;9.20;99.90;;;;;;5035334;28;20025;-40
2023/12/13 02:38:47;;;;;;;8.05;3.42;;;9.20;99.90;;;;;;5035094;28;20551;-39
2023/12/13 02:41:13;;;;;;;10.07;3.28;;;9.20;99.90;;;;;;5035237;28;20484;-39
2023/12/13 02:43:39;;;;;;;9.13;4.28;;;9.20;99.90;;;;;;5034040;28;20026;-40
2023/12/13 02:46:04;;;;;;;8.07;4.00;;;9.20;99.90;;;;;;5035523;28;20075;-41
2023/12/13 02:48:30;;;;;;;10.30;3.65;;;9.20;99.90;;;;;;5035060;28;20105;-40
2023/12/13 02:50:56;;;;;;;7.70;4.60;;;9.20;99.90;;;;;;5035141;28;20025;-40
2023/12/13 02:53:23;;;;;;;8.88;4.43;;;9.20;99.90;;;;;;5034853;28;20025;-37
2023/12/13 02:55:48;;;;;;;5.88;3.90;;;9.20;99.90;;;;;;5035036;28;20037;-41
2023/12/13 02:58:14;;;;;;;5.70;3.88;;;9.20;99.90;;;;;;5034608;28;20029;-40
2023/12/13 03:00:41;;;;;;;7.63;3.83;;;9.20;99.90;;;;;;5034412;28;20037;-38
2023/12/13 03:03:08;;;;;;;12.18;4.30;;;9.20;99.90;;;;;;5033273;28;20048;-40
2023/12/13 03:05:34;;;;;;;11.88;4.20;;;9.20;99.90;;;;;;5034715;28;20092;-42
2023/12/13 03:07:59;;;;;;;11.10;4.68;;;9.20;99.90;;;;;;5034590;28;20101;-38
2023/12/13 03:10:25;;;;;;;11.02;4.60;;;9.10;99.90;;;;;;5034722;28;20036;-38
2023/12/13 03:12:51;;;;;;;10.13;4.20;;;9.10;99.90;;;;;;5034725;28;20433;-38
2023/12/13 03:15:17;;;;;;;12.82;4.22;;;9.10;99.90;;;;;;5034471;28;20087;-39
2023/12/13 03:17:42;;;;;;;8.88;4.10;;;9.20;99.90;;;;;;5034258;28;20040;-40
2023/12/13 03:20:11;;;;;;;9.70;4.32;;;9.20;99.90;;;;;;5034385;28;20061;-39
2023/12/13 03:22:38;;;;;;;10.35;4.50;;;9.20;99.90;;;;;;5034041;28;20502;-39
2023/12/13 03:25:04;;;;;;;8.85;5.40;;;9.20;99.90;;;;;;5034304;28;20541;-39
2023/12/13 03:27:30;;;;;;;10.80;4.97;;;9.20;99.90;;;;;;5034271;28;20084;-39
2023/12/13 03:29:56;;;;;;;10.50;5.15;;;9.20;99.90;;;;;;5033578;28;20352;-39
2023/12/13 03:32:21;;;;;;;8.13;5.15;;;9.20;99.90;;;;;;5034083;28;20021;-38
2023/12/13 03:34:47;;;;;;;9.73;5.65;;;9.20;99.90;;;;;;5034345;28;20034;-44
2023/12/13 03:37:14;;;;;;;13.38;5.93;;;9.30;99.90;;;;;;5034017;28;20434;-39
2023/12/13 03:39:40;;;;;;;9.88;5.45;;;9.30;99.90;;;;;;5031817;28;20507;-38
2023/12/13 03:42:06;;;;;;;11.45;5.63;;;9.20;99.90;;;;;;5033059;28;20029;-38
2023/12/13 03:44:31;;;;;;;14.88;6.15;;;9.30;99.90;;;;;;5033934;28;20034;-39
2023/12/13 03:46:57;;;;;;;8.75;5.55;;;9.30;99.90;;;;;;5033597;28;20060;-40
2023/12/13 03:49:23;;;;;;;10.35;4.82;;;9.30;99.90;;;;;;5032825;28;20029;-39
2023/12/13 03:51:48;;;;;;;11.55;5.80;;;9.30;99.90;;;;;;5034017;28;20535;-39
2023/12/13 03:54:15;;;;;;;17.30;6.65;;;9.30;99.90;;;;;;5033627;28;20112;-39
2023/12/13 03:56:41;;;;;;;12.93;5.68;;;9.30;99.90;;;;;;5033268;28;20022;-40
2023/12/13 03:59:07;;;;;;;10.00;5.70;;;9.20;99.90;;;;;;5034016;28;20079;-38
2023/12/13 04:01:33;;;;;;;11.00;5.03;;;9.20;99.90;;;;;;5033384;28;20029;-39
2023/12/13 04:03:59;;;;;;;14.38;5.53;;;9.20;99.90;;;;;;5031441;28;20025;-39
2023/12/13 04:06:24;;;;;;;15.98;5.45;;;9.10;99.90;;;;;;5033763;28;20029;-40
2023/12/13 04:08:50;;;;;;;13.02;5.57;;;9.20;99.90;;;;;;5033127;28;20390;-40
2023/12/13 04:11:16;;;;;;;13.55;5.95;;;9.20;99.90;;;;;;5033374;28;20036;-38
2023/12/13 04:13:42;;;;;;;12.50;6.15;;;9.10;99.90;;;;;;5031350;28;20128;-41
2023/12/13 04:16:08;;;;;;;13.52;5.35;;;9.20;99.90;;;;;;5033533;28;20108;-39
2023/12/13 04:18:35;;;;;;;9.75;5.38;;;9.20;99.90;;;;;;5032901;28;20026;-39
2023/12/13 04:21:00;;;;;;;12.77;6.82;;;9.20;99.90;;;;;;5021960;28;20383;-38
2023/12/13 04:23:26;;;;;;;12.85;6.00;;;9.20;99.90;;;;;;5032538;28;20045;-39
2023/12/13 04:25:52;;;;;;;13.57;5.38;;;9.20;99.90;;;;;;5033415;28;20498;-38
2023/12/13 04:28:17;;;;;;;10.27;5.57;;;9.10;99.90;;;;;;5032893;28;20013;-40
2023/12/13 04:30:43;;;;;;;12.95;5.80;;;9.10;99.90;;;;;;5031814;28;20030;-38
2023/12/13 04:33:09;;;;;;;9.77;4.57;;;9.00;99.90;;;;;;5032935;28;20033;-40
2023/12/13 04:35:34;;;;;;;19.48;6.30;;;9.10;99.90;;;;;;5033247;28;20072;-41
2023/12/13 04:38:00;;;;;;;9.02;5.43;;;9.00;99.90;;;;;;5031401;28;20475;-42
2023/12/13 04:40:25;;;;;;;11.77;6.07;;;9.00;99.90;;;;;;5033003;28;20027;-38
2023/12/13 04:42:51;;;;;;;13.73;5.30;;;9.00;99.90;;;;;;5032734;28;20360;-39
2023/12/13 04:45:17;;;;;;;15.68;7.20;;;9.10;99.90;;;;;;5033082;28;20546;-40
2023/12/13 04:47:43;;;;;;;15.80;5.85;;;9.10;99.90;;;;;;5032693;28;20399;-38
2023/12/13 04:50:09;;;;;;;10.80;5.75;;;9.10;99.90;;;;;;5033017;28;20021;-37
2023/12/13 04:52:35;;;;;;;23.23;6.70;;;9.10;99.90;;;;;;5032100;28;20479;-39
2023/12/13 04:55:01;;;;;;;12.23;5.32;;;9.10;99.90;;;;;;5032603;28;20028;-40
2023/12/13 04:57:27;;;;;;;13.15;5.70;;;9.00;99.90;;;;;;5032216;28;20029;-38
2023/12/13 04:59:53;;;;;;;15.23;5.57;;;9.00;99.90;;;;;;5032548;28;20072;-43
2023/12/13 05:02:19;;;;;;;12.10;5.82;;;9.00;99.90;;;;;;5032388;28;20075;-39
2023/12/13 05:04:45;;;;;;;13.23;5.68;;;9.00;99.90;;;;;;5031558;28;20026;-39
2023/12/13 05:07:11;;;;;;;16.52;7.38;;;9.00;99.90;;;;;;5030943;28;20472;-37
2023/12/13 05:09:37;;;;;;;9.50;5.70;;;9.00;99.90;;;;;;5032547;28;20475;-38
2023/12/13 05:12:03;;;;;;;15.65;6.07;;;9.00;99.90;;;;;;5032949;28;20032;-39
2023/12/13 05:14:29;;;;;;;14.07;7.13;;;9.10;99.90;;;;;;5031687;28;20034;-39
2023/12/13 05:16:54;;;;;;;16.60;7.55;;;9.10;99.90;;;;;;5032174;28;20468;-38
2023/12/13 05:19:20;;;;;;;10.88;5.95;;;9.10;99.90;;;;;;5032498;28;20036;-38
2023/12/13 05:21:46;;;;;;;14.43;6.35;;;9.10;99.90;;;;;;5032147;28;20033;-37
2023/12/13 05:24:12;;;;;;;17.75;7.25;;;9.20;99.90;;;;;;5031820;28;20069;-49
2023/12/13 05:26:37;;;;;;;18.33;6.03;;;9.20;99.90;;;;;;5029995;28;20495;-41
2023/12/13 05:29:03;;;;;;;17.52;6.55;;;9.20;99.90;;;;;;5031805;28;20029;-41
2023/12/13 05:31:29;;;;;;;16.45;6.65;;;9.20;99.90;;;;;;5031260;28;20087;-42
2023/12/13 05:33:54;;;;;;;22.02;6.72;;;9.20;99.90;;;;;;5032432;28;20032;-39
2023/12/13 05:36:20;;;;;;;19.95;7.45;;;9.20;99.90;;;;;;5031620;28;20403;-38
2023/12/13 05:38:46;;;;;;;22.10;6.53;;;9.20;99.90;;;;;;5031844;28;20030;-42
2023/12/13 05:41:12;;;;;;;16.13;7.95;;;9.20;99.90;;;;;;5032390;28;20029;-38
2023/12/13 05:43:38;;;;;;;20.85;6.50;;;9.20;99.90;;;;;;5030817;28;20492;-38
2023/12/13 05:46:04;;;;;;;16.08;6.90;;;9.20;99.90;;;;;;5031927;28;20028;-39
2023/12/13 05:48:30;;;;;;;11.77;6.45;;;9.30;99.90;;;;;;5031877;28;20059;-38
2023/12/13 05:50:57;;;;;;;13.00;6.05;;;9.30;99.90;;;;;;5032575;28;20502;-38
2023/12/13 05:53:23;;;;;;;12.13;6.22;;;9.20;99.90;;;;;;5032232;28;20102;-39
2023/12/13 05:55:49;;;;;;;10.93;5.95;;;9.30;99.90;;;;;;5032102;28;20056;-39
2023/12/13 05:58:14;;;;;;;12.38;5.47;;;9.30;99.90;;;;;;5032201;28;20455;-39
2023/12/13 06:00:40;;;;;;;18.92;5.75;;;9.30;99.90;;;;;;5032105;28;20108;-37
2023/12/13 06:03:06;;;;;;;11.85;6.07;;;9.30;99.90;;;;;;5030685;28;20485;-37
2023/12/13 06:05:31;;;;;;;17.73;6.07;;;9.30;99.90;;;;;;5034815;28;20101;-39
2023/12/13 06:07:57;;;;;;;16.50;6.63;;;9.30;99.90;;;;;;5022966;28;20037;-38
2023/12/13 06:10:23;;;;;;;18.08;5.82;;;9.30;99.90;;;;;;5029662;28;20053;-39
2023/12/13 06:12:52;;;;;;;12.40;5.97;;;9.30;99.90;;;;;;5034242;28;20109;-39
2023/12/13 06:15:19;;;;;;;15.07;6.80;;;9.30;99.90;;;;;;5033118;28;20079;-38
2023/12/13 06:17:44;;;;;;;17.17;5.55;;;9.30;99.90;;;;;;5035255;28;20029;-37
2023/12/13 06:20:11;;;;;;;14.30;6.88;;;9.40;99.90;;;;;;5034472;28;20475;-37
2023/12/13 06:22:38;;;;;;;14.73;5.75;;;9.30;99.90;;;;;;5035496;28;20542;-38
2023/12/13 06:25:04;;;;;;;16.42;5.63;;;9.30;99.90;;;;;;5035679;28;20052;-37
2023/12/13 06:27:29;;;;;;;17.45;6.88;;;9.40;99.90;;;;;;5035845;28;20479;-36
2023/12/13 06:29:55;;;;;;;13.35;6.10;;;9.40;99.90;;;;;;5035033;28;20028;-37
2023/12/13 06:32:20;;;;;;;18.08;6.20;;;9.40;99.90;;;;;;5035312;28;20022;-38
2023/12/13 06:34:46;;;;;;;18.20;5.95;;;9.40;99.90;;;;;;5034528;28;20033;-38
2023/12/13 06:37:12;;;;;;;16.30;6.18;;;9.40;99.90;;;;;;5034133;28;20018;-40
2023/12/13 06:39:38;;;;;;;17.25;5.85;;;9.40;99.90;;;;;;5035056;28;20025;-43
2023/12/13 06:42:05;;;;;;;13.85;5.68;;;9.40;99.90;;;;;;5035568;28;20065;-35
2023/12/13 06:44:31;;;;;;;15.25;5.07;;;9.40;99.90;;;;;;5034604;28;20029;-38
2023/12/13 06:46:57;;;;;;;9.95;5.90;;;9.50;99.90;;;;;;5034635;28;20116;-37
2023/12/13 06:49:23;;;;;;;8.95;4.97;;;9.50;99.90;;;;;;5035378;28;20143;-37
2023/12/13 06:51:52;;;;;;;11.60;5.65;;;9.50;99.90;;;;;;5035056;28;20075;-39
2023/12/13 06:54:18;;;;;;;10.75;5.13;;;9.50;99.90;;;;;;5034895;28;20403;-42
2023/12/13 06:56:44;;;;;;;18.05;6.40;;;9.50;99.90;;;;;;5035028;28;20032;-38
2023/12/13 06:59:09;;;;;;;12.43;5.43;;;9.50;99.90;;;;;;5033538;28;20388;-37
2023/12/13 07:01:35;;;;;;;20.73;6.03;;;9.50;99.90;;;;;;5034895;28;20396;-38
2023/12/13 07:04:01;;;;;;;13.45;6.00;;;9.50;99.90;;;;;;5034986;28;20021;-38
2023/12/13 07:06:26;;;;;;;16.20;6.35;;;9.50;99.90;;;;;;5033897;28;20429;-37
2023/12/13 07:08:52;;;;;;;14.43;5.95;;;9.60;99.90;;;;;;5034385;28;20052;-37
2023/12/13 07:11:18;;;;;;;12.88;5.72;;;9.60;99.90;;;;;;5034592;28;20462;-38
2023/12/13 07:13:43;;;;;;;17.15;7.20;;;9.60;99.90;;;;;;5034712;28;20383;-39
2023/12/13 07:16:09;;;;;;;14.98;5.65;;;9.60;99.90;;;;;;5033726;28;20030;-40
2023/12/13 07:18:35;;;;;;;13.40;5.85;;;9.60;99.90;;;;;;5033042;28;20034;-38
2023/12/13 07:21:01;;;;;;;12.63;6.05;;;9.50;99.90;;;;;;5033134;28;20112;-39
2023/12/13 07:23:26;;;;;;;19.80;6.63;;;9.60;99.90;;;;;;5034338;28;20045;-39
2023/12/13 07:25:52;;;;;;;16.33;6.45;;;9.60;99.90;;;;;;5034014;28;20017;-38
2023/12/13 07:28:18;;;;;;;15.05;6.13;;;9.60;99.90;;;;;;5034568;28;20519;-39
2023/12/13 07:30:44;;;;;;;12.57;5.03;;;9.60;99.90;;;;;;5032517;28;20108;-37
2023/12/13 07:33:10;;;;;;;16.95;7.40;;;9.60;99.90;;;;;;5034265;28;20029;-38
2023/12/13 07:35:36;;;;;;;16.13;5.97;;;9.60;99.90;;;;;;5032800;28;20029;-38
2023/12/13 07:38:03;;;;;;;14.75;6.03;;;9.70;99.90;;;;;;5034034;28;20109;-38
2023/12/13 07:40:29;;;;;;;17.75;6.60;;;9.70;99.90;;;;;;5034003;28;20037;-41
2023/12/13 07:42:55;;;;;;;17.05;6.07;;;9.70;99.90;;;;;;5034145;28;20498;-38
2023/12/13 07:45:22;;;;;;;16.13;5.78;;;9.70;99.90;;;;;;5032551;28;20017;-38
2023/12/13 07:47:49;;;;;;;11.57;6.45;;;9.60;99.90;;;;;;5032779;28;20164;-37
2023/12/13 07:50:15;;;;;;;13.80;6.38;;;9.60;99.90;;;;;;5032571;28;20547;-38
2023/12/13 07:52:41;;;;;;;20.48;5.97;;;9.60;99.90;;;;;;5032867;28;20105;-39
2023/12/13 07:55:07;;;;;;;18.05;6.05;;;9.60;99.90;;;;;;5032513;28;20116;-41
2023/12/13 07:57:32;;;;;;;18.73;6.28;;;9.60;99.90;;;;;;5033339;28;20064;-37
2023/12/13 07:59:58;;;;;;;19.77;6.65;;;9.60;99.90;;;;;;5031869;28;20147;-39
2023/12/13 08:02:24;;;;;;;15.07;6.05;;;9.60;99.90;;;;;;5033730;28;20022;-38
2023/12/13 08:04:50;;;;;;;14.30;5.72;;;9.60;99.90;;;;;;5033772;28;20020;-36
2023/12/13 08:07:16;;;;;;;19.85;6.18;;;9.60;99.90;;;;;;5032237;28;20021;-39
2023/12/13 08:09:43;;;;;;;15.90;6.55;;;9.70;99.90;;;;;;5033979;28;20072;-37
2023/12/13 08:12:08;;;;;;;14.30;5.97;;;9.70;99.90;;;;;;5033191;28;20521;-39
2023/12/13 08:14:34;;;;;;;14.48;6.50;;;9.60;99.90;;;;;;5033649;28;20030;-40
2023/12/13 08:17:06;;;;;;;15.35;6.20;;;9.60;99.90;;;;;;5033305;28;20554;-38
2023/12/13 08:19:32;;;;;;;16.02;6.20;;;9.60;99.90;;;;;;5013682;28;20061;-47
2023/12/13 08:21:57;;;;;;;14.13;6.22;;;9.70;99.90;;;;;;5013714;28;20049;-39
2023/12/13 08:24:23;;;;;;;16.95;5.70;;;9.70;99.90;;;;;;5029915;28;20048;-38
2023/12/13 08:26:49;;;;;;;12.70;5.82;;;9.80;99.90;;;;;;5033347;28;20014;-38
2023/12/13 08:29:14;;;;;;;22.27;6.80;;;9.80;99.90;;;;;;5032263;28;20021;-38
2023/12/13 08:31:40;;;;;;;18.35;6.15;;;9.90;99.90;;;;;;5032956;28;20090;-43
2023/12/13 08:34:06;;;;;;;24.17;7.40;;;9.90;99.90;;;;;;5032020;28;20032;-39
2023/12/13 08:36:32;;;;;;;25.33;7.03;;;9.90;99.90;;;;;;5033268;28;20020;-37
2023/12/13 08:38:57;;;;;;;19.85;8.10;;;9.90;99.90;;;;;;5032673;28;20030;-37
2023/12/13 08:41:23;;;;;;;17.75;6.10;;;10.00;99.90;;;;;;5032845;28;20167;-37
2023/12/13 08:43:49;;;;;;;25.00;8.07;;;10.00;99.90;;;;;;5033089;28;20136;-39
2023/12/13 08:46:14;;;;;;;23.52;6.32;;;10.00;99.90;;;;;;5031809;28;20024;-39
2023/12/13 08:48:40;;;;;;;17.42;6.57;;;10.00;99.90;;;;;;5033002;28;20022;-38
2023/12/13 08:51:06;;;;;;;15.90;6.97;;;10.00;99.90;;;;;;5032975;28;20319;-38
2023/12/13 08:53:32;;;;;;;25.80;6.60;;;10.00;99.90;;;;;;5031725;28;20029;-39
2023/12/13 08:55:57;;;;;;;15.00;6.70;;;10.00;99.90;;;;;;5032144;28;20076;-39
2023/12/13 08:58:23;;;;;;;18.38;6.63;;;10.00;99.90;;;;;;5032723;28;20021;-38
2023/12/13 09:00:48;;;;;;;15.90;6.18;;;10.00;99.90;;;;;;5031269;28;20120;-41
2023/12/13 09:03:14;;;;;;;14.18;6.22;;;10.00;99.90;;;;;;5032690;28;20049;-41
2023/12/13 09:05:40;;;;;;;13.32;6.03;;;10.00;99.90;;;;;;5032599;28;20032;-38
2023/12/13 09:08:05;;;;;;;14.18;6.40;;;9.90;99.90;;;;;;5032743;28;20387;-39
2023/12/13 09:10:34;;;;;;;15.68;6.10;;;9.90;99.90;;;;;;5031438;28;20030;-40
2023/12/13 09:13:02;;;;;;;19.77;7.18;;;9.90;99.90;;;;;;5032561;28;20068;-39
2023/12/13 09:15:28;;;;;;;19.70;7.07;;;10.00;99.90;;;;;;5032129;28;20387;-43
2023/12/13 09:17:54;;;;;;;20.52;7.00;;;10.00;99.90;;;;;;5032807;28;20467;-38
2023/12/13 09:20:20;;;;;;;19.80;5.85;;;10.10;99.90;;;;;;5032428;28;20040;-38
2023/12/13 09:22:45;;;;;;;17.45;6.75;;;10.10;99.90;;;;;;5032361;28;20125;-42
2023/12/13 09:25:14;;;;;;;19.52;6.60;;;10.10;99.90;;;;;;5026016;28;20025;-49
2023/12/13 09:27:41;;;;;;;8.73;5.25;;;10.20;99.90;;;;;;5012762;28;20057;-42
2023/12/13 09:30:09;;;;;;;11.70;6.43;;;10.30;99.90;;;;;;5026007;28;20499;-41
2023/12/13 09:32:34;;;;;;;13.73;6.57;;;10.30;99.90;;;;;;5032406;28;20490;-40
2023/12/13 09:35:00;;;;;;;14.18;7.00;;;10.40;99.90;;;;;;5032472;28;20096;-39
2023/12/13 09:37:26;;;;;;;14.10;6.93;;;10.40;99.90;;;;;;5031466;28;20087;-39
2023/12/13 09:39:52;;;;;;;22.48;6.50;;;10.50;99.90;;;;;;5033949;28;20022;-38
2023/12/13 09:42:18;;;;;;;15.10;6.88;;;10.50;99.90;;;;;;5036596;28;20057;-39
2023/12/13 09:44:44;;;;;;;14.98;6.03;;;10.50;99.90;;;;;;5036145;28;20060;-37
2023/12/13 09:47:12;;;;;;;16.27;7.32;;;10.50;99.90;;;;;;5034991;28;20026;-42
2023/12/13 09:49:39;;;;;;;14.95;6.25;;;10.50;99.90;;;;;;5036522;28;20483;-38
2023/12/13 09:52:09;;;;;;;15.07;6.28;;;10.50;99.90;;;;;;5036248;28;20474;-40
2023/12/13 09:54:40;;;;;;;15.15;6.95;;;10.50;99.90;;;;;;5033853;28;20029;-38
2023/12/13 09:57:06;;;;;;;13.98;6.15;;;10.60;99.90;;;;;;5045729;28;20551;-41
2023/12/13 09:59:32;;;;;;;11.65;6.63;;;10.60;99.90;;;;;;5035549;28;20025;-36
2023/12/13 10:01:58;;;;;;;29.30;7.57;;;10.70;99.90;;;;;;5035529;28;20346;-52
2023/12/13 10:04:28;;;;;;;21.45;8.02;;;10.80;99.90;;;;;;5036032;28;20025;-54
2023/12/13 10:06:54;;;;;;;27.05;9.43;;;10.70;99.90;;;;;;5035534;28;20014;-53
2023/12/13 10:09:20;;;;;;;17.17;8.52;;;10.70;99.90;;;;;;5036224;28;20506;-50
2023/12/13 10:11:46;;;;;;;12.50;7.20;;;10.80;99.90;;;;;;5035478;28;20025;-52
2023/12/13 10:14:12;;;;;;;16.95;7.10;;;10.70;99.90;;;;;;5036125;28;20525;-54
2023/12/13 10:16:41;;;;;;;31.83;7.60;;;10.80;99.90;;;;;;5035445;28;20092;-50
2023/12/13 10:19:07;;;;;;;24.55;7.35;;;10.80;99.90;;;;;;5035804;28;20541;-53
2023/12/13 10:21:36;;;;;;;20.67;8.07;;;10.80;99.90;;;;;;5035176;28;20491;-54
2023/12/13 10:24:05;;;;;;;19.73;7.05;;;10.90;99.90;;;;;;5033312;28;20499;-52
2023/12/13 10:26:35;;;;;;;23.70;8.20;;;11.00;99.90;;;;;;5035329;28;20021;-51
2023/12/13 10:29:02;;;;;;;13.57;7.57;;;11.00;99.90;;;;;;5035015;28;20433;-52
2023/12/13 10:31:27;;;;;;;18.30;7.20;;;11.10;99.90;;;;;;5027340;28;20479;-51
2023/12/13 10:33:53;;;;;;;14.23;7.05;;;11.00;99.90;;;;;;5035550;28;20045;-53
2023/12/13 10:36:21;;;;;;;15.05;6.97;;;11.00;99.90;;;;;;5035378;28;20026;-52
2023/12/13 10:38:52;;;;;;;20.40;7.63;;;11.00;99.90;;;;;;5033390;28;20033;-52
2023/12/13 10:41:20;;;;;;;18.20;7.20;;;11.10;99.90;;;;;;5035374;28;20030;-50
2023/12/13 10:43:46;;;;;;;10.50;5.00;;;11.10;99.90;;;;;;5034990;28;20482;-52
2023/12/13 10:46:16;;;;;;;17.73;7.40;;;11.20;99.90;;;;;;5034268;28;20068;-53
2023/12/13 10:48:42;;;;;;;21.80;6.97;;;11.10;99.90;;;;;;5034809;28;20559;-54
2023/12/13 10:51:08;;;;;;;27.88;7.90;;;11.10;99.90;;;;;;5034251;28;20061;-51
2023/12/13 10:53:34;;;;;;;16.48;6.68;;;11.10;99.90;;;;;;5034653;28;20057;-51
2023/12/13 10:56:01;;;;;;;16.63;6.78;;;11.00;99.90;;;;;;5032917;28;20476;-53
2023/12/13 10:58:27;;;;;;;20.73;7.53;;;11.00;99.90;;;;;;5033710;28;20055;-53
2023/12/13 11:00:55;;;;;;;20.30;7.38;;;11.00;99.90;;;;;;5033787;28;20021;-53
2023/12/13 11:03:45;;;;;;;14.27;7.37;;;11.10;99.90;;;;;;5034160;28;20483;-51
2023/12/13 11:06:16;;;;;;;11.00;5.85;;;11.00;99.90;;;;;;5034168;28;20484;-53
2023/12/13 11:08:46;;;;;;;16.60;6.47;;;11.00;99.90;;;;;;5034220;28;20502;-53
2023/12/13 11:11:14;;;;;;;14.50;6.45;;;11.10;99.90;;;;;;5034959;28;20027;-52
2023/12/13 11:13:49;;;;;;;26.58;7.40;;;11.10;99.90;;;;;;5034762;28;20029;-51
2023/12/13 11:16:15;;;;;;;15.07;6.35;;;11.10;99.90;;;;;;5034429;28;20108;-52
2023/12/13 11:18:40;;;;;;;18.80;6.60;;;11.10;99.90;;;;;;5033480;28;20717;-57
2023/12/13 11:21:06;;;;;;;18.70;7.95;;;11.20;99.90;;;;;;5034142;28;20403;-58
2023/12/13 11:23:32;;;;;;;13.95;5.78;;;11.20;99.90;;;;;;5034585;28;20410;-53
2023/12/13 11:25:58;;;;;;;24.38;7.13;;;11.20;99.90;;;;;;5034052;28;20025;-51
2023/12/13 11:28:24;;;;;;;14.80;6.55;;;11.20;99.90;;;;;;5034504;28;20096;-53
2023/12/13 11:30:53;;;;;;;17.25;7.25;;;11.20;99.90;;;;;;5032652;28;20112;-52
2023/12/13 11:33:21;;;;;;;15.82;6.93;;;11.20;99.90;;;;;;5032603;28;20057;-58
2023/12/13 11:35:49;;;;;;;;;;;11.20;99.90;;;;;;5034739;28;20364;-55
2023/12/13 11:38:16;;;;;;;15.00;7.25;;;11.20;99.90;;;;;;5034550;28;20311;-50
2023/12/13 11:40:42;;;;;;;18.05;6.00;;;11.20;99.90;;;;;;5032913;28;20030;-53
2023/12/13 11:43:07;;;;;;;17.25;6.65;;;11.20;99.90;;;;;;5034250;28;20399;-54
2023/12/13 11:45:33;;;;;;;12.27;6.10;;;11.20;99.90;;;;;;5033459;28;20049;-54
2023/12/13 11:48:01;;;;;;;13.40;6.15;;;11.20;99.90;;;;;;5033652;28;20395;-52
2023/12/13 11:50:27;;;;;;;;;;;11.10;99.90;;;;;;5034182;28;20513;-52
2023/12/13 11:52:53;;;;;;;17.02;7.53;;;11.10;99.90;;;;;;5033600;28;19909;-53
2023/12/13 11:55:20;;;;;;;17.10;6.38;;;11.20;99.90;;;;;;5033644;28;20017;-51
2023/12/13 11:57:49;;;;;;;17.17;6.93;;;11.20;99.90;;;;;;5033945;28;20025;-52
2023/12/13 12:00:19;;;;;;;18.05;6.78;;;11.30;99.90;;;;;;5033818;28;20029;-52
2023/12/13 12:02:45;;;;;;;15.35;7.03;;;11.40;99.90;;;;;;5031247;28;20101;-55
2023/12/13 12:05:13;;;;;;;12.73;5.95;;;11.40;99.90;;;;;;5033356;28;20156;-57
2023/12/13 12:07:38;;;;;;;16.98;6.43;;;11.50;99.90;;;;;;5033650;28;20463;-55
2023/12/13 12:10:05;;;;;;;16.42;6.03;;;11.50;99.90;;;;;;5033170;28;20048;-54
2023/12/13 12:12:31;;;;;;;13.43;7.57;;;11.60;99.90;;;;;;5032926;28;20514;-54
2023/12/13 12:14:56;;;;;;;12.70;6.95;;;11.60;99.90;;;;;;5033000;28;20025;-55
2023/12/13 12:17:23;;;;;;;13.80;6.78;;;11.60;99.90;;;;;;5033552;28;20033;-53
2023/12/13 12:19:51;;;;;;;14.68;6.65;;;11.60;99.90;;;;;;5029693;28;20061;-54
2023/12/13 12:22:20;;;;;;;19.70;6.90;;;11.60;99.90;;;;;;5027993;28;20395;-53
2023/12/13 12:24:47;;;;;;;16.40;6.88;;;11.60;99.90;;;;;;5033288;28;20048;-55
2023/12/13 12:27:13;;;;;;;15.77;6.93;;;11.50;99.90;;;;;;5033304;28;20606;-54
2023/12/13 12:29:39;;;;;;;22.25;7.38;;;11.50;99.90;;;;;;5032216;28;20049;-55
2023/12/13 12:32:08;;;;;;;15.13;6.70;;;11.50;99.90;;;;;;5033250;28;20100;-54
2023/12/13 12:34:36;;;;;;;13.48;6.68;;;11.50;99.90;;;;;;5033263;28;20025;-57
2023/12/13 12:37:02;;;;;;;;;;;11.40;99.90;;;;;;5033523;28;20021;-55
2023/12/13 12:39:32;;;;;;;17.58;6.70;;;11.30;99.90;;;;;;5032935;28;19999;-54